Time;durP1;ratioP1;P1;durP2;ratioP2;P2;SDS_P1;SDS_P2;PMS_P1;PMS_P2;Temp;Humidity;BMP_temperature;BMP_pressure;BME280_temperature;BME280_humidity;BME280_pressure;Samples;Min_cycle;Max_cycle;Signal;HPM_P1;HPM_P2
2022/06/01 00:02:00;;;;;;;9.73;8.60;;;11.90;99.90;;;;;;5048104;28;20112;-68
2022/06/01 00:04:25;;;;;;;10.20;9.20;;;11.90;99.90;;;;;;5033474;28;20055;-68
2022/06/01 00:06:51;;;;;;;10.30;9.20;;;11.90;99.90;;;;;;5049705;28;20041;-68
2022/06/01 00:09:17;;;;;;;9.82;8.93;;;11.80;99.90;;;;;;5051300;28;20040;-68
2022/06/01 00:11:43;;;;;;;10.20;9.10;;;11.90;99.90;;;;;;5044825;28;20126;-68
2022/06/01 00:14:09;;;;;;;11.60;8.95;;;11.80;99.90;;;;;;5049734;28;20120;-67
2022/06/01 00:16:35;;;;;;;9.88;8.95;;;11.80;99.90;;;;;;5048394;28;20391;-69
2022/06/01 00:19:00;;;;;;;10.32;9.25;;;11.80;99.90;;;;;;5049803;28;20047;-68
2022/06/01 00:21:26;;;;;;;9.75;8.75;;;11.80;99.90;;;;;;5048950;28;20047;-68
2022/06/01 00:23:52;;;;;;;9.70;8.60;;;11.80;99.90;;;;;;5049918;28;20045;-68
2022/06/01 00:26:17;;;;;;;10.27;8.40;;;11.70;99.90;;;;;;5047368;28;20040;-68
2022/06/01 00:28:43;;;;;;;10.50;9.40;;;11.70;99.90;;;;;;5047935;28;20071;-67
2022/06/01 00:31:11;;;;;;;10.93;8.52;;;11.60;99.90;;;;;;5047986;28;20723;-68
2022/06/01 00:33:37;;;;;;;10.43;9.43;;;11.60;99.90;;;;;;5046960;28;20057;-68
2022/06/01 00:36:06;;;;;;;10.05;9.02;;;11.50;99.90;;;;;;5045178;28;20045;-68
2022/06/01 00:38:31;;;;;;;9.70;8.70;;;11.50;99.90;;;;;;5048965;28;20041;-67
2022/06/01 00:40:57;;;;;;;10.75;9.65;;;11.50;99.90;;;;;;5048373;28;20041;-67
2022/06/01 00:43:44;;;;;;;10.57;9.18;;;11.40;99.90;;;;;;5048932;28;20484;-68
2022/06/01 00:46:11;;;;;;;10.02;8.88;;;11.40;99.90;;;;;;5051044;28;20045;-67
2022/06/01 00:48:44;;;;;;;10.70;9.38;;;11.30;99.90;;;;;;5048198;28;20045;-67
2022/06/01 00:51:13;;;;;;;10.50;9.40;;;11.30;99.90;;;;;;5050058;28;20047;-67
2022/06/01 00:53:41;;;;;;;10.18;9.13;;;11.30;99.90;;;;;;5032295;28;20037;-68
2022/06/01 00:56:11;;;;;;;11.27;9.15;;;11.30;99.90;;;;;;5050691;28;20480;-68
2022/06/01 00:58:42;;;;;;;11.20;9.38;;;11.30;99.90;;;;;;5048527;28;20488;-68
2022/06/01 01:01:18;;;;;;;12.00;10.80;;;11.20;99.90;;;;;;5049597;28;20447;-69
2022/06/01 01:03:49;;;;;;;11.75;10.05;;;11.20;99.90;;;;;;5063405;28;20059;-68
2022/06/01 01:06:23;;;;;;;10.88;9.73;;;11.20;99.90;;;;;;5062425;28;20503;-68
2022/06/01 01:08:49;;;;;;;11.00;9.85;;;11.20;99.90;;;;;;5048388;28;20047;-67
2022/06/01 01:11:19;;;;;;;10.80;9.50;;;11.20;99.90;;;;;;5049327;28;20128;-68
2022/06/01 01:13:47;;;;;;;11.15;10.05;;;11.20;99.90;;;;;;5048812;28;20044;-67
2022/06/01 01:16:15;;;;;;;11.48;10.20;;;11.20;99.90;;;;;;5049392;28;20387;-68
2022/06/01 01:18:44;;;;;;;11.05;10.05;;;11.20;99.90;;;;;;5049979;28;20048;-68
2022/06/01 01:21:33;;;;;;;10.45;9.43;;;11.20;99.90;;;;;;5048534;28;20126;-67
2022/06/01 01:24:30;;;;;;;12.05;9.98;;;11.20;99.90;;;;;;5048859;28;20047;-68
2022/06/01 01:26:56;;;;;;;11.30;10.05;;;11.20;99.90;;;;;;5047013;28;20045;-68
2022/06/01 01:29:37;;;;;;;11.20;9.75;;;11.20;99.90;;;;;;5049044;28;20052;-68
2022/06/01 01:32:05;;;;;;;11.40;10.00;;;11.20;99.90;;;;;;5048389;28;20064;-68
2022/06/01 01:34:33;;;;;;;12.38;11.05;;;11.20;99.90;;;;;;5048163;28;20125;-68
2022/06/01 01:37:02;;;;;;;12.88;11.18;;;11.20;99.90;;;;;;5049555;28;20488;-68
2022/06/01 01:39:30;;;;;;;11.65;10.15;;;11.20;99.90;;;;;;5048952;28;20043;-68
2022/06/01 01:41:57;;;;;;;16.08;12.05;;;11.20;99.90;;;;;;5048104;28;20120;-68
2022/06/01 01:44:30;;;;;;;11.88;10.43;;;11.20;99.90;;;;;;5049346;28;20518;-67
2022/06/01 01:46:57;;;;;;;12.50;11.20;;;11.30;99.90;;;;;;5048554;28;20037;-67
2022/06/01 01:49:26;;;;;;;12.63;11.45;;;11.30;99.90;;;;;;5048805;28;20495;-68
2022/06/01 01:51:54;;;;;;;12.30;11.07;;;11.20;99.90;;;;;;5049844;28;20037;-67
2022/06/01 01:54:29;;;;;;;12.45;11.15;;;11.20;99.90;;;;;;5043029;28;20098;-68
2022/06/01 01:57:26;;;;;;;12.93;11.63;;;11.20;99.90;;;;;;5048486;28;20125;-67
2022/06/01 02:00:07;;;;;;;11.85;10.70;;;11.20;99.90;;;;;;5047763;28;20171;-68
2022/06/01 02:02:47;;;;;;;12.32;11.02;;;11.20;99.90;;;;;;5048312;28;20037;-68
2022/06/01 02:08:37;;;;;;;11.77;10.68;;;11.20;99.90;;;;;;5051240;28;20048;-67
2022/06/01 02:14:19;;;;;;;10.93;9.82;;;11.30;99.90;;;;;;5013171;28;20362;-68
2022/06/01 02:17:04;;;;;;;11.27;10.15;;;11.30;99.90;;;;;;4997405;28;20061;-68
2022/06/01 02:19:41;;;;;;;11.70;10.40;;;11.30;99.90;;;;;;5014181;28;20045;-68
2022/06/01 02:22:08;;;;;;;10.77;9.68;;;11.30;99.90;;;;;;5014142;28;20041;-68
2022/06/01 02:24:34;;;;;;;11.15;10.15;;;11.30;99.90;;;;;;5030050;28;20140;-68
2022/06/01 02:27:00;;;;;;;11.57;10.45;;;11.30;99.90;;;;;;5014348;28;20124;-68
2022/06/01 02:29:34;;;;;;;12.02;10.63;;;11.30;99.90;;;;;;4996575;28;20053;-67
2022/06/01 02:32:02;;;;;;;11.30;10.20;;;11.30;99.90;;;;;;5011769;28;20081;-68
2022/06/01 02:34:30;;;;;;;11.43;10.23;;;11.30;99.90;;;;;;4997035;28;20096;-68
2022/06/01 02:36:58;;;;;;;12.50;11.40;;;11.30;99.90;;;;;;5031021;28;20116;-67
2022/06/01 02:39:26;;;;;;;11.75;10.55;;;11.30;99.90;;;;;;5014254;28;20056;-68
2022/06/01 02:42:26;;;;;;;11.77;10.52;;;11.30;99.90;;;;;;5014525;28;20041;-68
2022/06/01 02:45:08;;;;;;;13.88;11.02;;;11.20;99.90;;;;;;5010020;28;20041;-67
2022/06/01 02:47:38;;;;;;;13.82;11.68;;;11.20;99.90;;;;;;5038146;28;20060;-68
2022/06/01 02:50:06;;;;;;;12.27;11.07;;;11.20;99.90;;;;;;5051519;28;20044;-67
2022/06/01 02:52:32;;;;;;;12.35;11.15;;;11.20;99.90;;;;;;5051529;28;20059;-68
2022/06/01 02:54:57;;;;;;;12.07;10.80;;;11.20;99.90;;;;;;5051118;28;20484;-68
2022/06/01 02:57:23;;;;;;;12.13;10.93;;;11.20;99.90;;;;;;5051187;28;20278;-67
2022/06/01 02:59:49;;;;;;;12.07;10.88;;;11.20;99.90;;;;;;5051568;28;20404;-68
2022/06/01 03:02:15;;;;;;;11.95;10.70;;;11.20;99.90;;;;;;5051543;28;20029;-68
2022/06/01 03:04:42;;;;;;;13.38;12.00;;;11.20;99.90;;;;;;5051465;28;20155;-68
2022/06/01 03:07:10;;;;;;;13.27;11.98;;;11.20;99.90;;;;;;5051201;28;20047;-68
2022/06/01 03:09:35;;;;;;;12.70;11.43;;;11.20;99.90;;;;;;5034186;28;20047;-68
2022/06/01 03:12:01;;;;;;;12.13;10.93;;;11.10;99.90;;;;;;5046742;28;20037;-68
2022/06/01 03:14:27;;;;;;;12.48;11.27;;;11.10;99.90;;;;;;5050398;28;20041;-67
2022/06/01 03:16:53;;;;;;;13.10;11.90;;;11.10;99.90;;;;;;5051320;28;20041;-67
2022/06/01 03:19:19;;;;;;;13.25;12.05;;;11.10;99.90;;;;;;5050598;28;20055;-68
2022/06/01 03:21:45;;;;;;;11.63;10.50;;;11.10;99.90;;;;;;5050825;28;20739;-67
2022/06/01 03:24:10;;;;;;;11.85;10.65;;;11.10;99.90;;;;;;5051347;28;20137;-68
2022/06/01 03:26:36;;;;;;;12.05;10.93;;;11.00;99.90;;;;;;5050929;28;20491;-68
2022/06/01 03:29:03;;;;;;;13.13;11.73;;;11.00;99.90;;;;;;5052590;28;20033;-68
2022/06/01 03:31:29;;;;;;;12.93;11.63;;;11.00;99.90;;;;;;5052245;28;20039;-68
2022/06/01 03:33:55;;;;;;;13.25;11.95;;;11.00;99.90;;;;;;5033871;28;20584;-68
2022/06/01 03:36:21;;;;;;;12.68;11.50;;;11.00;99.90;;;;;;5034533;28;20049;-67
2022/06/01 03:38:47;;;;;;;12.98;11.57;;;11.00;99.90;;;;;;5050759;28;20776;-68
2022/06/01 03:41:12;;;;;;;13.40;12.00;;;11.00;99.90;;;;;;5050130;28;20048;-68
2022/06/01 03:46:23;;;;;;;13.23;11.48;;;11.00;99.90;;;;;;5050807;28;20033;-68
2022/06/01 03:48:49;;;;;;;12.32;11.13;;;11.10;99.90;;;;;;5050111;28;20086;-68
2022/06/01 03:51:16;;;;;;;12.98;11.23;;;11.10;99.90;;;;;;5050731;28;20037;-67
2022/06/01 03:53:42;;;;;;;12.65;11.45;;;11.10;99.90;;;;;;5030594;28;20033;-68
2022/06/01 03:56:08;;;;;;;13.40;12.10;;;11.00;99.90;;;;;;5050383;28;20048;-68
2022/06/01 03:58:36;;;;;;;13.63;12.32;;;11.10;99.90;;;;;;5049469;28;20519;-68
2022/06/01 04:01:05;;;;;;;14.63;13.13;;;11.10;99.90;;;;;;5050028;28;20048;-67
2022/06/01 04:03:31;;;;;;;13.48;12.15;;;11.10;99.90;;;;;;5051480;28;20155;-67
2022/06/01 04:05:56;;;;;;;13.43;12.05;;;11.10;99.90;;;;;;5049294;28;20601;-67
2022/06/01 04:08:22;;;;;;;14.02;12.60;;;11.10;99.90;;;;;;5050298;28;20047;-67
2022/06/01 04:10:49;;;;;;;14.52;13.13;;;11.10;99.90;;;;;;5048397;28;20032;-67
2022/06/01 04:13:15;;;;;;;16.88;13.38;;;11.10;99.90;;;;;;5049913;28;20048;-67
2022/06/01 04:15:41;;;;;;;14.63;13.18;;;11.10;99.90;;;;;;5048062;28;20052;-67
2022/06/01 04:18:07;;;;;;;16.00;14.35;;;11.00;99.90;;;;;;5050365;28;20403;-67
2022/06/01 04:20:33;;;;;;;14.63;13.15;;;11.10;99.90;;;;;;5050919;28;20112;-67
2022/06/01 04:23:00;;;;;;;14.38;12.93;;;11.10;99.90;;;;;;5049359;28;20037;-67
2022/06/01 04:25:27;;;;;;;16.30;14.30;;;11.10;99.90;;;;;;5050789;28;20037;-67
2022/06/01 04:27:53;;;;;;;15.35;13.70;;;11.10;99.90;;;;;;5049530;28;20125;-67
2022/06/01 04:30:20;;;;;;;14.65;13.02;;;11.10;99.90;;;;;;5033546;28;20123;-67
2022/06/01 04:32:49;;;;;;;16.17;14.05;;;11.10;99.90;;;;;;5050710;28;20119;-66
2022/06/01 04:35:16;;;;;;;17.15;14.35;;;11.10;99.90;;;;;;5049712;28;20041;-67
2022/06/01 04:37:42;;;;;;;15.68;14.13;;;11.10;99.90;;;;;;5050849;28;20095;-67
2022/06/01 04:40:09;;;;;;;16.02;14.52;;;11.20;99.90;;;;;;5050685;28;20434;-67
2022/06/01 04:42:35;;;;;;;15.85;14.18;;;11.20;99.90;;;;;;5048686;28;20037;-67
2022/06/01 04:45:02;;;;;;;15.55;14.05;;;11.20;99.90;;;;;;5064749;28;20044;-67
2022/06/01 04:47:27;;;;;;;15.85;14.35;;;11.30;99.90;;;;;;5049668;28;20032;-67
2022/06/01 04:49:53;;;;;;;15.32;13.73;;;11.20;99.90;;;;;;5050328;28;20120;-67
2022/06/01 04:52:18;;;;;;;16.63;14.93;;;11.30;99.90;;;;;;5049162;28;20103;-67
2022/06/01 04:54:44;;;;;;;17.00;15.30;;;11.30;99.90;;;;;;5049261;28;20049;-67
2022/06/01 04:57:10;;;;;;;16.13;14.45;;;11.30;99.90;;;;;;5047614;28;20088;-67
2022/06/01 04:59:35;;;;;;;17.75;16.08;;;11.30;99.90;;;;;;5049423;28;20041;-67
2022/06/01 05:02:01;;;;;;;17.58;15.88;;;11.30;99.90;;;;;;5049296;28;20040;-67
2022/06/01 05:04:28;;;;;;;17.38;15.68;;;11.30;99.90;;;;;;5047656;28;20052;-67
2022/06/01 05:06:58;;;;;;;16.38;14.70;;;11.40;99.90;;;;;;5032764;28;20094;-67
2022/06/01 05:09:24;;;;;;;17.15;15.43;;;11.30;99.90;;;;;;5049535;28;20040;-67
2022/06/01 05:11:50;;;;;;;18.17;16.27;;;11.40;99.90;;;;;;5049323;28;20149;-67
2022/06/01 05:14:16;;;;;;;17.25;15.45;;;11.40;99.90;;;;;;5049058;28;20564;-67
2022/06/01 05:16:42;;;;;;;17.00;15.00;;;11.40;99.90;;;;;;5044377;28;20044;-67
2022/06/01 05:19:08;;;;;;;17.15;15.32;;;11.40;99.90;;;;;;5048871;28;20499;-67
2022/06/01 05:21:34;;;;;;;17.92;16.08;;;11.40;99.90;;;;;;5049208;28;20041;-66
2022/06/01 05:23:59;;;;;;;16.92;15.25;;;11.50;99.90;;;;;;5045904;28;20072;-67
2022/06/01 05:26:26;;;;;;;18.35;16.45;;;11.60;99.90;;;;;;5047816;28;20060;-67
2022/06/01 05:28:51;;;;;;;16.80;15.10;;;11.60;99.90;;;;;;5047768;28;20222;-67
2022/06/01 05:31:18;;;;;;;19.23;17.23;;;11.60;99.90;;;;;;5047917;28;20124;-66
2022/06/01 05:33:45;;;;;;;18.25;16.35;;;11.70;99.90;;;;;;5049886;28;20407;-67
2022/06/01 05:36:12;;;;;;;19.13;17.05;;;11.80;99.90;;;;;;5050182;28;20084;-67
2022/06/01 05:38:38;;;;;;;18.45;16.65;;;11.80;99.90;;;;;;5053037;28;20040;-66
2022/06/01 05:41:04;;;;;;;18.92;16.92;;;11.90;99.90;;;;;;5052882;28;20043;-66
2022/06/01 05:43:30;;;;;;;19.92;17.92;;;12.00;99.90;;;;;;5052764;28;20033;-67
2022/06/01 05:45:56;;;;;;;19.35;17.35;;;12.00;99.90;;;;;;5052981;28;20049;-67
2022/06/01 05:48:22;;;;;;;19.00;17.00;;;12.10;99.90;;;;;;5052651;28;20041;-67
2022/06/01 05:50:48;;;;;;;18.92;17.02;;;12.10;99.90;;;;;;5053710;28;20041;-67
2022/06/01 05:53:15;;;;;;;19.58;17.55;;;12.30;99.90;;;;;;5052532;28;20063;-67
2022/06/01 05:55:41;;;;;;;19.30;17.25;;;12.50;99.90;;;;;;5033638;28;20049;-66
2022/06/01 05:58:22;;;;;;;20.02;17.92;;;12.80;99.90;;;;;;5051460;28;20041;-67
2022/06/01 06:00:49;;;;;;;20.60;17.88;;;12.90;99.90;;;;;;5052247;28;20033;-67
2022/06/01 06:03:18;;;;;;;19.23;17.20;;;12.90;99.90;;;;;;5053439;28;20407;-67
2022/06/01 06:08:29;;;;;;;19.85;17.83;;;12.70;99.90;;;;;;5040062;28;20053;-66
2022/06/01 06:10:55;;;;;;;21.15;18.23;;;12.70;99.90;;;;;;5048423;28;20418;-67
2022/06/01 06:13:20;;;;;;;19.40;17.50;;;12.50;99.90;;;;;;5051450;28;20049;-67
2022/06/01 06:15:46;;;;;;;21.25;17.83;;;12.50;99.90;;;;;;5044926;28;20068;-67
2022/06/01 06:18:14;;;;;;;19.05;17.05;;;12.50;99.90;;;;;;5043820;28;20037;-67
2022/06/01 06:20:44;;;;;;;19.30;17.30;;;12.60;99.90;;;;;;5047685;28;20041;-66
2022/06/01 06:23:11;;;;;;;18.30;16.38;;;12.70;99.90;;;;;;5045511;28;20037;-67
2022/06/01 06:25:38;;;;;;;19.10;16.52;;;12.90;99.90;;;;;;5043849;28;20076;-68
2022/06/01 06:28:04;;;;;;;18.30;15.82;;;13.10;99.90;;;;;;5030045;28;20036;-66
2022/06/01 06:30:29;;;;;;;18.48;15.55;;;13.40;99.90;;;;;;5051704;28;20129;-67
2022/06/01 06:32:55;;;;;;;15.30;13.80;;;13.50;99.90;;;;;;5052032;28;20116;-68
2022/06/01 06:35:21;;;;;;;16.23;13.82;;;13.80;99.90;;;;;;5051630;28;20052;-67
2022/06/01 06:37:46;;;;;;;15.07;13.02;;;13.90;99.90;;;;;;5053482;28;20025;-67
2022/06/01 06:40:12;;;;;;;13.63;12.25;;;14.10;99.90;;;;;;5050738;28;20114;-67
2022/06/01 06:42:38;;;;;;;16.35;13.13;;;14.20;99.90;;;;;;5050467;28;20041;-67
2022/06/01 06:45:05;;;;;;;13.25;11.75;;;14.00;99.90;;;;;;5048448;28;20466;-67
2022/06/01 06:47:34;;;;;;;13.27;11.45;;;13.90;99.90;;;;;;5051153;28;20037;-67
2022/06/01 06:50:02;;;;;;;13.13;11.77;;;13.90;99.90;;;;;;5050386;28;20426;-67
2022/06/01 06:52:28;;;;;;;15.07;11.43;;;13.80;99.90;;;;;;5062300;28;20045;-68
2022/06/01 06:54:54;;;;;;;12.77;11.05;;;13.70;99.90;;;;;;5034040;28;20064;-68
2022/06/01 06:57:20;;;;;;;11.77;10.57;;;13.70;99.90;;;;;;5033089;28;20087;-68
2022/06/01 06:59:48;;;;;;;11.32;10.25;;;13.70;99.90;;;;;;5051306;28;20475;-68
2022/06/01 07:02:15;;;;;;;12.27;10.02;;;13.70;99.90;;;;;;5051113;28;20104;-69
2022/06/01 07:04:40;;;;;;;11.60;9.35;;;13.80;99.90;;;;;;5034263;28;20048;-67
2022/06/01 07:07:06;;;;;;;11.63;9.80;;;13.70;99.90;;;;;;5050893;28;20480;-69
2022/06/01 07:09:32;;;;;;;10.57;9.35;;;13.70;99.90;;;;;;5051987;28;20461;-64
2022/06/01 07:11:57;;;;;;;10.07;8.77;;;13.70;99.90;;;;;;5050267;28;20033;-67
2022/06/01 07:14:23;;;;;;;10.48;8.93;;;13.60;99.90;;;;;;5046391;28;20120;-69
2022/06/01 07:16:48;;;;;;;11.25;8.95;;;13.60;99.90;;;;;;5048440;28;20083;-68
2022/06/01 07:19:14;;;;;;;10.18;9.13;;;13.50;99.90;;;;;;5049356;28;20127;-69
2022/06/01 07:21:41;;;;;;;9.93;8.75;;;13.50;99.90;;;;;;5051163;28;20776;-68
2022/06/01 07:24:08;;;;;;;9.57;8.68;;;13.60;99.90;;;;;;5047355;28;20044;-68
2022/06/01 07:26:40;;;;;;;9.77;8.55;;;13.70;99.90;;;;;;5049060;28;20045;-69
2022/06/01 07:29:07;;;;;;;;;;;13.80;99.90;;;;;;5048878;28;20130;-68
2022/06/01 07:31:33;;;;;;;10.10;7.95;;;13.90;99.90;;;;;;5047728;28;20272;-67
2022/06/01 07:33:59;;;;;;;9.07;8.15;;;13.80;99.90;;;;;;5047682;28;20052;-68
2022/06/01 07:36:26;;;;;;;9.27;8.35;;;13.80;99.90;;;;;;5049042;28;20041;-68
2022/06/01 07:44:26;;;;;;;12.07;10.13;;;13.20;99.90;;;;;;5047273;28;20049;-68
2022/06/01 07:46:52;;;;;;;11.57;10.00;;;13.00;99.90;;;;;;5031219;28;20067;-68
2022/06/01 07:49:19;;;;;;;10.40;9.25;;;12.90;99.90;;;;;;5047924;28;20167;-68
2022/06/01 07:51:44;;;;;;;9.23;5.97;;;12.80;99.90;;;;;;5048558;28;20136;-66
2022/06/01 07:54:11;;;;;;;4.70;3.53;;;12.80;99.90;;;;;;5048482;28;20175;-64
2022/06/01 07:56:36;;;;;;;1.52;1.42;;;12.70;99.90;;;;;;5049241;28;20048;-65
2022/06/01 07:59:05;;;;;;;1.65;1.08;;;12.50;99.90;;;;;;5048105;28;20041;-65
2022/06/01 08:01:31;;;;;;;0.70;0.70;;;12.40;99.90;;;;;;5050221;28;20041;-65
2022/06/01 08:03:59;;;;;;;0.90;0.40;;;12.20;99.90;;;;;;5049921;28;20068;-65
2022/06/01 08:06:26;;;;;;;0.68;0.63;;;12.00;99.90;;;;;;5049167;28;20040;-66
2022/06/01 08:08:52;;;;;;;1.25;1.08;;;11.90;99.90;;;;;;5048360;28;20041;-65
2022/06/01 08:11:18;;;;;;;2.03;1.30;;;11.80;99.90;;;;;;5049320;28;20041;-65
2022/06/01 08:13:43;;;;;;;1.83;1.60;;;11.80;99.90;;;;;;5050212;28;20029;-64
2022/06/01 08:16:09;;;;;;;3.05;1.70;;;11.90;99.90;;;;;;5049464;28;20033;-64
2022/06/01 08:18:35;;;;;;;3.60;1.90;;;11.90;99.90;;;;;;5047582;28;20044;-65
2022/06/01 08:21:01;;;;;;;2.80;2.10;;;12.00;99.90;;;;;;5046844;28;20033;-65
2022/06/01 08:23:30;;;;;;;4.82;2.50;;;12.00;99.90;;;;;;5045529;28;20044;-65
2022/06/01 08:25:56;;;;;;;2.40;2.10;;;12.10;99.90;;;;;;5046777;28;20127;-66
2022/06/01 08:28:22;;;;;;;2.65;2.35;;;12.30;99.90;;;;;;5046830;28;20124;-65
2022/06/01 08:30:49;;;;;;;5.03;3.20;;;12.50;99.90;;;;;;5045514;28;20098;-65
2022/06/01 08:33:15;;;;;;;5.30;3.80;;;12.90;99.90;;;;;;5049847;28;20033;-66
2022/06/01 08:35:44;;;;;;;4.57;3.92;;;13.20;99.90;;;;;;5047643;28;20077;-65
2022/06/01 08:38:10;;;;;;;4.97;3.50;;;13.50;99.90;;;;;;5048137;28;20040;-65
2022/06/01 08:41:06;;;;;;;3.22;2.90;;;13.90;99.90;;;;;;5048859;28;20037;-65
2022/06/01 08:43:55;;;;;;;4.25;3.50;;;14.20;99.90;;;;;;5046429;28;20439;-65
2022/06/01 08:46:22;;;;;;;5.25;3.75;;;14.60;99.90;;;;;;5044516;28;20033;-65
2022/06/01 08:49:04;;;;;;;4.20;3.80;;;15.10;99.90;;;;;;5045856;28;20055;-66
2022/06/01 08:51:31;;;;;;;4.90;4.40;;;15.50;99.90;;;;;;5046284;28;20306;-65
2022/06/01 08:54:01;;;;;;;4.68;4.18;;;15.70;99.90;;;;;;5046650;28;20228;-66
2022/06/01 08:56:45;;;;;;;5.97;4.45;;;15.90;99.90;;;;;;5048300;28;20395;-65
2022/06/01 08:59:38;;;;;;;7.30;4.70;;;16.10;99.90;;;;;;5045781;28;20124;-65
2022/06/01 09:02:24;;;;;;;6.30;4.85;;;16.20;99.90;;;;;;5046748;28;20037;-65
2022/06/01 09:05:02;;;;;;;5.18;4.68;;;16.40;99.90;;;;;;5048685;28;20074;-65
2022/06/01 09:07:54;;;;;;;6.43;4.95;;;16.40;99.90;;;;;;5048541;28;20419;-67
2022/06/01 09:10:43;;;;;;;4.75;4.25;;;16.50;99.90;;;;;;5047608;28;20039;-66
2022/06/01 09:13:12;;;;;;;4.55;3.90;;;16.50;99.90;;;;;;5046983;28;20040;-65
2022/06/01 09:15:54;;;;;;;4.68;3.55;;;16.50;99.90;;;;;;5045575;28;20064;-66
2022/06/01 09:18:25;;;;;;;3.92;3.00;;;16.10;99.90;;;;;;5045182;28;20036;-65
2022/06/01 09:23:35;;;;;;;2.65;1.95;;;15.10;99.90;;;;;;5047372;28;20087;-66
2022/06/01 09:26:03;;;;;;;2.42;2.22;;;14.80;99.90;;;;;;5043042;28;20065;-64
2022/06/01 09:28:35;;;;;;;2.22;2.03;;;14.50;99.90;;;;;;5048110;28;20470;-66
2022/06/01 09:31:09;;;;;;;90.43;19.98;;;14.30;99.90;;;;;;5045683;28;20053;-64
2022/06/01 09:33:37;;;;;;;10.15;3.50;;;14.30;99.90;;;;;;5048067;28;20101;-65
2022/06/01 09:36:09;;;;;;;2.55;1.58;;;14.70;99.90;;;;;;5045161;28;20395;-66
2022/06/01 09:38:55;;;;;;;5.00;2.70;;;15.10;99.90;;;;;;5047132;28;20052;-65
2022/06/01 09:41:24;;;;;;;3.45;2.50;;;15.20;99.90;;;;;;5047223;28;20034;-65
2022/06/01 09:43:56;;;;;;;3.08;2.78;;;15.20;99.90;;;;;;5044185;28;20041;-66
2022/06/01 09:46:33;;;;;;;3.63;2.90;;;15.10;99.90;;;;;;5046315;28;20632;-65
2022/06/01 09:49:02;;;;;;;3.38;2.40;;;15.10;99.90;;;;;;5047896;28;20045;-66
2022/06/01 09:51:27;;;;;;;3.47;2.50;;;15.30;99.90;;;;;;5047413;28;20495;-65
2022/06/01 09:54:20;;;;;;;2.50;2.30;;;15.60;99.90;;;;;;5045803;28;20041;-65
2022/06/01 09:56:48;;;;;;;2.50;2.05;;;15.70;99.90;;;;;;5045165;28;20466;-65
2022/06/01 10:08:22;;;;;;;2.30;2.10;;;16.20;99.90;;;;;;5045867;28;20044;-66
2022/06/01 10:10:58;;;;;;;2.88;2.20;;;16.10;99.90;;;;;;5029251;28;20049;-66
2022/06/01 10:13:50;;;;;;;1.27;1.17;;;16.00;99.90;;;;;;5025420;28;20052;-65
2022/06/01 10:16:42;;;;;;;1.52;1.42;;;15.70;99.90;;;;;;5045883;28;20041;-65
2022/06/01 10:19:12;;;;;;;2.28;1.60;;;15.50;99.90;;;;;;5047847;28;20041;-66
2022/06/01 10:21:49;;;;;;;1.63;1.52;;;15.60;99.90;;;;;;5046959;28;20369;-65
2022/06/01 10:24:23;;;;;;;2.50;2.20;;;16.10;99.90;;;;;;5033363;28;20081;-65
2022/06/01 10:26:55;;;;;;;2.03;1.60;;;16.40;99.90;;;;;;5049340;28;20040;-66
2022/06/01 10:29:36;;;;;;;2.13;1.37;;;16.20;99.90;;;;;;5049422;28;20044;-66
2022/06/01 10:32:10;;;;;;;1.70;1.20;;;16.00;99.90;;;;;;5031874;28;20419;-65
2022/06/01 10:34:52;;;;;;;2.63;1.08;;;15.80;99.90;;;;;;5033789;28;20044;-66
2022/06/01 10:37:34;;;;;;;1.60;0.95;;;15.40;99.90;;;;;;5053564;28;20114;-65
2022/06/01 10:40:11;;;;;;;1.00;0.90;;;15.10;99.90;;;;;;5051531;28;20052;-66
2022/06/01 10:45:34;;;;;;;1.42;0.98;;;14.60;99.90;;;;;;5047768;28;20057;-66
2022/06/01 10:48:13;;;;;;;0.77;0.50;;;14.40;99.90;;;;;;5053177;28;20037;-66
2022/06/01 10:50:49;;;;;;;1.27;0.70;;;14.40;99.90;;;;;;5047592;28;20136;-65
2022/06/01 10:53:36;;;;;;;2.15;0.75;;;14.40;99.90;;;;;;5050671;28;20049;-65
2022/06/01 10:56:02;;;;;;;2.08;0.80;;;14.40;99.90;;;;;;5049677;28;20049;-66
2022/06/01 10:58:30;;;;;;;0.95;0.80;;;14.30;99.90;;;;;;5051177;28;20044;-66
2022/06/01 11:01:04;;;;;;;2.03;1.20;;;14.30;99.90;;;;;;5051123;28;20044;-66
2022/06/01 11:04:08;;;;;;;2.85;1.30;;;14.40;99.90;;;;;;5049559;28;20442;-65
2022/06/01 11:06:54;;;;;;;2.60;1.30;;;14.40;99.90;;;;;;5049617;28;20040;-65
2022/06/01 11:09:32;;;;;;;0.50;0.50;;;14.10;99.90;;;;;;5051007;28;20850;-65
2022/06/01 11:12:06;;;;;;;2.67;0.60;;;13.90;99.90;;;;;;5051440;28;20068;-65
2022/06/01 11:14:43;;;;;;;1.45;0.50;;;13.60;99.90;;;;;;5049567;28;20130;-66
2022/06/01 11:17:14;;;;;;;0.50;0.30;;;13.30;99.90;;;;;;5048812;28;20033;-66
2022/06/01 11:20:08;;;;;;;2.53;0.70;;;13.10;99.90;;;;;;5050772;28;20054;-65
2022/06/01 11:22:52;;;;;;;0.40;0.40;;;13.30;99.90;;;;;;5047757;28;20037;-65
2022/06/01 11:25:34;;;;;;;0.50;0.47;;;13.70;99.90;;;;;;5050825;28;20037;-65
2022/06/01 11:28:11;;;;;;;1.15;0.55;;;13.90;99.90;;;;;;5048285;28;20048;-65
2022/06/01 11:30:52;;;;;;;0.77;0.40;;;13.80;99.90;;;;;;5047544;28;20541;-64
2022/06/01 11:33:35;;;;;;;0.63;0.40;;;13.80;99.90;;;;;;5045943;28;20041;-65
2022/06/01 11:36:17;;;;;;;0.50;0.50;;;13.60;99.90;;;;;;5048301;28;20040;-66
2022/06/01 11:38:53;;;;;;;1.25;0.40;;;13.60;99.90;;;;;;5050332;28;20118;-65
2022/06/01 11:41:31;;;;;;;0.40;0.40;;;13.50;99.90;;;;;;5048932;28;20086;-66
2022/06/01 11:44:05;;;;;;;0.93;0.55;;;13.60;99.90;;;;;;5047806;28;20037;-66
2022/06/01 11:46:33;;;;;;;1.15;0.65;;;13.80;99.90;;;;;;5049695;28;20366;-66
2022/06/01 11:49:02;;;;;;;0.40;0.40;;;14.00;99.90;;;;;;5050194;28;20044;-66
2022/06/01 11:51:37;;;;;;;0.60;0.60;;;14.20;99.90;;;;;;5033018;28;20037;-66
2022/06/01 11:54:14;;;;;;;0.40;0.40;;;14.60;99.90;;;;;;5047110;28;20037;-65
2022/06/01 11:56:52;;;;;;;0.75;0.50;;;14.90;99.90;;;;;;5047719;28;20043;-64
2022/06/01 11:59:24;;;;;;;0.40;0.40;;;15.30;99.90;;;;;;5050317;28;20137;-65
2022/06/01 12:02:17;;;;;;;0.60;0.40;;;15.50;99.90;;;;;;5050389;28;20049;-65
2022/06/01 12:05:02;;;;;;;2.35;0.50;;;15.50;99.90;;;;;;5047644;28;20052;-66
2022/06/01 12:07:54;;;;;;;1.40;0.50;;;15.50;99.90;;;;;;5050022;28;20120;-66
2022/06/01 12:10:23;;;;;;;0.63;0.63;;;15.70;99.90;;;;;;5048892;28;20558;-65
2022/06/01 12:12:54;;;;;;;1.17;0.90;;;15.80;99.90;;;;;;5048475;28;20072;-65
2022/06/01 12:15:38;;;;;;;1.77;1.10;;;15.90;99.90;;;;;;5048116;28;20412;-65
2022/06/01 12:18:13;;;;;;;1.55;1.20;;;16.00;99.90;;;;;;5048063;28;20049;-65
2022/06/01 12:20:38;;;;;;;1.73;1.05;;;16.00;99.90;;;;;;5049793;28;20045;-66
2022/06/01 12:29:02;;;;;;;2.33;1.65;;;16.30;99.90;;;;;;5049248;28;20037;-65
2022/06/01 12:31:51;;;;;;;2.30;1.65;;;16.40;99.90;;;;;;5046322;28;20048;-66
2022/06/01 12:34:20;;;;;;;2.05;1.85;;;16.60;99.90;;;;;;5048309;28;20438;-66
2022/06/01 12:37:07;;;;;;;4.30;1.88;;;16.60;99.90;;;;;;5048726;28;20483;-65
2022/06/01 12:39:39;;;;;;;6.25;2.30;;;16.50;99.90;;;;;;5046539;28;20411;-65
2022/06/01 12:42:08;;;;;;;2.30;2.10;;;16.30;99.90;;;;;;5048153;28;20080;-65
2022/06/01 12:44:35;;;;;;;2.28;1.80;;;16.30;99.90;;;;;;5049217;28;20053;-65
2022/06/01 12:47:01;;;;;;;2.75;1.85;;;16.20;99.90;;;;;;5048602;28;20056;-66
2022/06/01 12:49:40;;;;;;;3.22;1.63;;;16.10;99.90;;;;;;5048887;28;20041;-65
2022/06/01 12:52:17;;;;;;;2.03;1.65;;;16.20;99.90;;;;;;5049195;28;20841;-65
2022/06/01 12:55:06;;;;;;;2.63;1.40;;;16.10;99.90;;;;;;5049632;28;20079;-65
2022/06/01 12:57:47;;;;;;;1.30;1.20;;;16.20;99.90;;;;;;5032332;28;20446;-66
2022/06/01 13:00:25;;;;;;;2.60;1.35;;;16.30;99.90;;;;;;5049725;28;20121;-66
2022/06/01 13:02:51;;;;;;;2.05;1.30;;;16.30;99.90;;;;;;5050320;28;20037;-65
2022/06/01 13:05:26;;;;;;;1.27;1.17;;;16.30;99.90;;;;;;5049202;28;20044;-66
2022/06/01 13:07:57;;;;;;;1.10;0.95;;;16.30;99.90;;;;;;5047681;28;20045;-65
2022/06/01 13:10:29;;;;;;;3.15;1.00;;;16.30;99.90;;;;;;5048948;28;20563;-66
2022/06/01 13:13:07;;;;;;;2.17;1.70;;;16.20;99.90;;;;;;5049439;28;20495;-67
2022/06/01 13:15:34;;;;;;;3.28;1.33;;;16.30;99.90;;;;;;5049891;28;20115;-66
2022/06/01 13:18:04;;;;;;;1.30;1.10;;;16.30;99.90;;;;;;5049776;28;20037;-67
2022/06/01 13:20:44;;;;;;;1.23;0.77;;;16.20;99.90;;;;;;5050073;28;20064;-66
2022/06/01 13:23:31;;;;;;;1.25;0.75;;;16.00;99.90;;;;;;5048527;28;20087;-65
2022/06/01 13:26:02;;;;;;;2.95;0.65;;;15.90;99.90;;;;;;5049760;28;20041;-66
2022/06/01 13:28:28;;;;;;;1.80;0.60;;;16.00;99.90;;;;;;5048517;28;20044;-66
2022/06/01 13:30:56;;;;;;;1.10;0.70;;;16.10;99.90;;;;;;5048751;28;20120;-65
2022/06/01 13:33:39;;;;;;;1.00;0.60;;;16.10;99.90;;;;;;5047360;28;20041;-66
2022/06/01 13:36:08;;;;;;;1.23;0.63;;;16.00;99.90;;;;;;5047675;28;20108;-66